createdAt,value
2018-10-21T00:01:38.440Z,12.40
2018-10-21T00:04:08.315Z,12.57
2018-10-21T00:06:38.285Z,12.48
2018-10-21T00:09:11.779Z,12.18
2018-10-21T00:11:41.675Z,12.24
2018-10-21T00:14:11.778Z,12.03
2018-10-21T00:16:42.217Z,12.35
2018-10-21T00:19:12.204Z,12.27
2018-10-21T00:21:42.166Z,12.51
2018-10-21T00:24:12.346Z,12.64
2018-10-21T00:26:42.812Z,12.70
2018-10-21T00:29:12.760Z,12.68
2018-10-21T00:31:42.722Z,12.28
2018-10-21T00:34:12.682Z,12.53
2018-10-21T00:36:42.655Z,12.72
2018-10-21T00:39:14.076Z,12.83
2018-10-21T00:41:44.548Z,12.77
2018-10-21T00:44:14.646Z,12.71
2018-10-21T00:46:45.717Z,12.62
2018-10-21T00:49:15.788Z,12.73
2018-10-21T00:51:45.694Z,12.53
2018-10-21T00:54:16.782Z,12.54
2018-10-21T00:56:48.278Z,12.47
2018-10-21T00:59:18.723Z,12.54
2018-10-21T01:01:48.803Z,12.64
2018-10-21T01:04:18.711Z,12.63
2018-10-21T01:06:48.861Z,12.59
2018-10-21T01:09:18.845Z,12.48
2018-10-21T01:11:48.906Z,12.49
2018-10-21T01:14:18.889Z,12.20
2018-10-21T01:16:49.565Z,12.41
2018-10-21T01:19:19.465Z,12.10
2018-10-21T01:21:49.495Z,11.75
2018-10-21T01:24:19.485Z,11.41
2018-10-21T01:26:49.719Z,11.78
2018-10-21T01:29:19.630Z,11.83
2018-10-21T01:31:49.626Z,11.95
2018-10-21T01:34:19.694Z,12.26
2018-10-21T01:36:50.736Z,12.25
2018-10-21T01:40:32.976Z,12.10
2018-10-21T01:43:03.637Z,12.24
2018-10-21T01:45:33.666Z,12.32
2018-10-21T01:48:04.762Z,12.29
2018-10-21T01:50:34.838Z,12.28
2018-10-21T01:53:06.007Z,12.27
2018-10-21T01:55:36.680Z,12.25
2018-10-21T01:58:07.198Z,12.21
2018-10-21T02:00:39.103Z,11.43
2018-10-21T02:03:09.379Z,11.90
2018-10-21T02:05:40.547Z,12.17
2018-10-21T02:08:10.556Z,12.36
2018-10-21T02:10:40.427Z,12.38
2018-10-21T02:13:10.573Z,12.39
2018-10-21T02:15:40.761Z,12.55
2018-10-21T02:18:10.740Z,12.69
2018-10-21T02:20:40.699Z,12.73
2018-10-21T02:23:10.670Z,12.71
2018-10-21T02:25:41.536Z,12.67
2018-10-21T02:28:11.622Z,12.78
2018-10-21T02:30:41.593Z,12.71
2018-10-21T02:33:11.810Z,11.98
2018-10-21T02:35:42.713Z,11.66
2018-10-21T02:38:12.674Z,11.37
2018-10-21T02:41:54.205Z,11.63
2018-10-21T02:44:24.628Z,12.09
2018-10-21T02:46:55.820Z,12.36
2018-10-21T02:49:25.751Z,12.42
2018-10-21T02:52:00.806Z,12.19
2018-10-21T02:54:31.836Z,12.58
2018-10-21T02:57:01.872Z,12.42
2018-10-21T02:59:32.050Z,12.44
2018-10-21T03:02:02.327Z,12.20
2018-10-21T03:04:32.287Z,12.19
2018-10-21T03:07:02.327Z,12.37
2018-10-21T03:09:32.609Z,12.47
2018-10-21T03:12:02.578Z,12.47
2018-10-21T03:14:32.972Z,11.87
2018-10-21T03:17:02.946Z,11.28
2018-10-21T03:19:32.963Z,11.13
2018-10-21T03:22:02.920Z,11.07
2018-10-21T03:24:33.009Z,10.87
2018-10-21T03:27:03.057Z,11.27
2018-10-21T03:29:32.996Z,11.80
2018-10-21T03:32:02.941Z,11.74
2018-10-21T03:34:33.053Z,11.55
2018-10-21T03:37:03.024Z,11.19
2018-10-21T03:39:32.987Z,11.64
2018-10-21T03:42:02.998Z,11.64
2018-10-21T03:44:33.808Z,11.91
2018-10-21T03:47:03.840Z,11.85
2018-10-21T03:49:33.719Z,11.97
2018-10-21T03:52:03.756Z,12.15
2018-10-21T03:54:34.497Z,12.04
2018-10-21T03:57:04.511Z,12.19
2018-10-21T03:59:34.494Z,12.32
2018-10-21T04:02:04.727Z,12.57
2018-10-21T04:04:35.465Z,12.48
2018-10-21T04:07:05.419Z,12.41
2018-10-21T04:09:35.443Z,12.51
2018-10-21T04:12:05.468Z,12.66
2018-10-21T04:14:36.434Z,12.54
2018-10-21T04:17:06.484Z,12.07
2018-10-21T04:19:36.444Z,12.00
2018-10-21T04:22:06.667Z,11.63
2018-10-21T04:24:37.720Z,12.23
2018-10-21T04:27:07.681Z,11.98
2018-10-21T04:29:37.652Z,11.87
2018-10-21T04:32:07.754Z,11.83
2018-10-21T04:34:38.908Z,11.58
2018-10-21T04:37:19.375Z,11.72
2018-10-21T04:40:00.101Z,12.08
2018-10-21T04:42:30.089Z,12.43
2018-10-21T04:45:00.405Z,12.62
2018-10-21T04:47:31.008Z,12.84
2018-10-21T04:50:01.107Z,12.78
2018-10-21T04:52:31.993Z,12.69
2018-10-21T04:55:06.285Z,12.29
2018-10-21T04:57:37.153Z,12.52
2018-10-21T05:00:09.753Z,12.67
2018-10-21T05:02:39.879Z,12.77
2018-10-21T05:05:11.818Z,12.80
2018-10-21T05:07:42.202Z,12.80
2018-10-21T05:10:23.931Z,12.70
2018-10-21T05:12:53.922Z,12.80
2018-10-21T05:15:25.915Z,12.77
2018-10-21T05:17:56.023Z,12.58
2018-10-21T05:20:26.053Z,12.23
2018-10-21T05:22:56.279Z,11.99
2018-10-21T05:25:27.269Z,12.13
2018-10-21T05:27:57.394Z,12.12
2018-10-21T05:30:27.491Z,12.25
2018-10-21T05:32:57.414Z,12.64
2018-10-21T05:35:28.350Z,12.92
2018-10-21T05:37:58.459Z,12.93
2018-10-21T05:40:28.692Z,12.82
2018-10-21T05:42:58.748Z,12.92
2018-10-21T05:45:29.053Z,12.89
2018-10-21T05:47:59.207Z,12.90
2018-10-21T05:50:29.275Z,12.74
2018-10-21T05:52:59.396Z,12.18
2018-10-21T05:55:29.560Z,12.17
2018-10-21T05:57:59.782Z,12.47
2018-10-21T06:00:29.719Z,12.09
2018-10-21T06:03:00.047Z,11.83
2018-10-21T06:05:42.038Z,11.61
2018-10-21T06:08:12.287Z,11.65
2018-10-21T06:10:43.104Z,11.59
2018-10-21T06:13:13.463Z,11.58
2018-10-21T06:15:44.531Z,11.81
2018-10-21T06:18:18.556Z,12.13
2018-10-21T06:20:52.996Z,12.51
2018-10-21T06:23:23.112Z,12.81
2018-10-21T06:25:55.181Z,12.88
2018-10-21T06:28:25.343Z,12.92
2018-10-21T06:30:55.562Z,12.64
2018-10-21T06:33:25.681Z,12.66
2018-10-21T06:35:56.586Z,12.97
2018-10-21T06:38:26.629Z,13.06
2018-10-21T06:40:56.826Z,13.38
2018-10-21T06:43:30.527Z,13.22
2018-10-21T06:46:00.688Z,12.86
2018-10-21T06:48:30.799Z,12.89
2018-10-21T06:51:00.936Z,12.83
2018-10-21T06:53:30.951Z,13.31
2018-10-21T06:56:01.868Z,14.04
2018-10-21T06:58:31.896Z,13.59
2018-10-21T07:01:02.007Z,13.38
2018-10-21T07:03:32.197Z,13.29
2018-10-21T07:06:22.762Z,13.48
2018-10-21T07:08:54.104Z,13.79
2018-10-21T07:11:24.118Z,14.16
2018-10-21T07:13:54.124Z,14.05
2018-10-21T07:16:24.956Z,14.13
2018-10-21T07:18:54.974Z,14.53
2018-10-21T07:21:25.042Z,14.53
2018-10-21T07:23:55.015Z,14.88
2018-10-21T07:26:25.933Z,14.51
2018-10-21T07:28:55.952Z,14.41
2018-10-21T07:31:26.057Z,14.19
2018-10-21T07:33:56.015Z,14.16
2018-10-21T07:36:26.518Z,13.82
2018-10-21T07:38:56.436Z,13.85
2018-10-21T07:41:26.338Z,14.04
2018-10-21T07:43:56.445Z,14.23
2018-10-21T07:46:27.249Z,15.32
2018-10-21T07:48:57.461Z,15.94
2018-10-21T07:51:27.588Z,16.67
2018-10-21T07:53:57.612Z,17.59
2018-10-21T07:56:28.040Z,17.72
2018-10-21T07:58:58.031Z,17.78
2018-10-21T08:01:28.123Z,17.57
2018-10-21T08:03:58.415Z,17.84
2018-10-21T08:06:40.099Z,18.61
2018-10-21T08:09:11.960Z,17.33
2018-10-21T08:11:41.828Z,17.33
2018-10-21T08:14:11.845Z,16.82
2018-10-21T08:16:42.719Z,17.02
2018-10-21T08:19:12.783Z,17.30
2018-10-21T08:21:42.922Z,16.99
2018-10-21T08:24:12.911Z,17.68
2018-10-21T08:26:42.906Z,18.29
2018-10-21T08:29:12.849Z,18.35
2018-10-21T08:31:42.883Z,18.53
2018-10-21T08:34:12.905Z,17.82
2018-10-21T08:36:43.536Z,18.90
2018-10-21T08:39:13.491Z,18.43
2018-10-21T08:41:43.296Z,18.30
2018-10-21T08:44:13.325Z,17.93
2018-10-21T08:46:43.349Z,17.90
2018-10-21T08:49:13.444Z,18.56
2018-10-21T08:51:43.399Z,18.37
2018-10-21T08:54:13.389Z,18.99
2018-10-21T08:56:43.434Z,18.45
2018-10-21T08:59:13.411Z,18.33
2018-10-21T09:01:43.399Z,18.38
2018-10-21T09:04:13.773Z,18.34
2018-10-21T09:06:44.024Z,18.34
2018-10-21T09:09:13.990Z,18.35
2018-10-21T09:11:44.083Z,18.85
2018-10-21T09:14:14.494Z,18.32
2018-10-21T09:16:45.279Z,17.69
2018-10-21T09:19:15.387Z,18.07
2018-10-21T09:21:45.397Z,17.66
2018-10-21T09:24:15.380Z,18.03
2018-10-21T09:26:45.790Z,17.57
2018-10-21T09:29:15.877Z,17.69
2018-10-21T09:31:45.969Z,17.78
2018-10-21T09:34:16.199Z,17.69
2018-10-21T09:36:47.228Z,17.85
2018-10-21T09:39:17.181Z,17.75
2018-10-21T09:41:47.231Z,18.22
2018-10-21T09:44:17.308Z,18.51
2018-10-21T09:46:48.431Z,17.84
2018-10-21T09:49:18.659Z,17.78
2018-10-21T09:51:48.697Z,17.82
2018-10-21T09:54:18.775Z,17.91
2018-10-21T09:56:49.694Z,17.99
2018-10-21T09:59:19.695Z,18.01
2018-10-21T10:01:54.672Z,18.21
2018-10-21T10:04:24.925Z,17.90
2018-10-21T10:06:55.436Z,17.97
2018-10-21T10:09:25.458Z,18.21
2018-10-21T10:11:55.600Z,18.35
2018-10-21T10:14:25.664Z,18.31
2018-10-21T10:16:56.798Z,17.98
2018-10-21T10:19:26.859Z,17.89
2018-10-21T10:21:56.973Z,17.94
2018-10-21T10:24:26.973Z,17.97
2018-10-21T10:26:57.666Z,18.17
2018-10-21T10:29:27.591Z,17.87
2018-10-21T10:31:57.354Z,17.66
2018-10-21T10:34:27.316Z,17.94
2018-10-21T10:36:57.495Z,18.07
2018-10-21T10:39:27.580Z,18.09
2018-10-21T10:41:57.784Z,18.12
2018-10-21T10:44:27.693Z,17.78
2018-10-21T10:46:58.334Z,17.94
2018-10-21T10:49:28.294Z,18.14
2018-10-21T10:51:58.375Z,17.97
2018-10-21T10:54:28.455Z,18.19
2018-10-21T10:56:59.359Z,18.23
2018-10-21T10:59:29.487Z,18.22
2018-10-21T11:01:59.523Z,18.06
2018-10-21T11:04:29.651Z,17.90
2018-10-21T11:07:00.340Z,18.01
2018-10-21T11:09:30.403Z,17.98
2018-10-21T11:12:00.508Z,17.99
2018-10-21T11:14:30.609Z,18.07
2018-10-21T11:17:01.312Z,18.21
2018-10-21T11:19:31.278Z,18.30
2018-10-21T11:22:01.451Z,18.22
2018-10-21T11:24:31.450Z,18.18
2018-10-21T11:27:01.555Z,18.34
2018-10-21T11:29:31.656Z,18.38
2018-10-21T11:32:01.712Z,18.63
2018-10-21T11:34:31.638Z,18.59
2018-10-21T11:37:02.586Z,18.88
2018-10-21T11:39:32.711Z,19.16
2018-10-21T11:42:02.699Z,19.09
2018-10-21T11:44:32.548Z,19.32
2018-10-21T11:47:03.693Z,19.20
2018-10-21T11:49:33.741Z,19.21
2018-10-21T11:52:03.823Z,19.45
2018-10-21T11:54:33.890Z,19.54
2018-10-21T11:57:04.810Z,19.34
2018-10-21T11:59:34.802Z,19.46
2018-10-21T12:02:04.932Z,19.54
2018-10-21T12:04:35.006Z,19.75
2018-10-21T12:07:06.136Z,19.86
2018-10-21T12:09:35.983Z,19.85
2018-10-21T12:12:05.939Z,19.87
2018-10-21T12:14:35.806Z,19.61
2018-10-21T12:17:06.152Z,19.91
2018-10-21T12:19:36.121Z,19.92
2018-10-21T12:22:06.379Z,19.72
2018-10-21T12:24:36.233Z,19.87
2018-10-21T12:27:07.203Z,19.67
2018-10-21T12:29:36.976Z,19.61
2018-10-21T12:32:06.818Z,19.54
2018-10-21T12:34:36.815Z,19.53
2018-10-21T12:37:07.816Z,19.65
2018-10-21T12:39:37.826Z,19.84
2018-10-21T12:42:07.586Z,19.88
2018-10-21T12:44:37.508Z,19.81
2018-10-21T12:47:07.837Z,19.78
2018-10-21T12:49:37.886Z,19.69
2018-10-21T12:52:07.937Z,19.65
2018-10-21T12:54:37.936Z,19.30
2018-10-21T12:57:08.800Z,19.66
2018-10-21T12:59:38.653Z,19.33
2018-10-21T13:02:08.814Z,19.36
2018-10-21T13:04:39.049Z,19.64
2018-10-21T13:07:09.549Z,19.70
2018-10-21T13:09:39.528Z,19.61
2018-10-21T13:12:09.487Z,19.36
2018-10-21T13:14:39.294Z,19.56
2018-10-21T13:17:09.781Z,19.50
2018-10-21T13:19:39.738Z,19.30
2018-10-21T13:22:09.677Z,19.09
2018-10-21T13:24:39.565Z,19.01
2018-10-21T13:27:10.242Z,18.89
2018-10-21T13:29:40.166Z,18.85
2018-10-21T13:32:10.166Z,18.78
2018-10-21T13:34:40.269Z,18.76
2018-10-21T13:37:11.212Z,19.03
2018-10-21T13:39:41.248Z,19.07
2018-10-21T13:42:11.178Z,19.28
2018-10-21T13:44:41.792Z,19.33
2018-10-21T13:47:12.977Z,19.15
2018-10-21T13:49:44.647Z,19.23
2018-10-21T13:52:14.597Z,19.27
2018-10-21T13:54:44.394Z,19.06
2018-10-21T13:57:15.684Z,19.14
2018-10-21T13:59:45.645Z,18.99
2018-10-21T14:02:15.576Z,18.82
2018-10-21T14:04:45.691Z,18.41
2018-10-21T14:07:16.249Z,18.80
2018-10-21T14:09:46.246Z,18.68
2018-10-21T14:12:16.119Z,18.19
2018-10-21T14:14:46.082Z,18.29
2018-10-21T14:17:17.009Z,18.37
2018-10-21T14:19:46.871Z,18.47
2018-10-21T14:22:16.830Z,18.54
2018-10-21T14:24:46.597Z,18.53
2018-10-21T14:27:17.335Z,18.61
2018-10-21T14:29:47.330Z,18.51
2018-10-21T14:32:17.131Z,18.66
2018-10-21T14:34:47.288Z,18.37
2018-10-21T14:37:17.245Z,17.92
2018-10-21T14:39:47.135Z,18.21
2018-10-21T14:42:17.126Z,18.39
2018-10-21T14:44:46.978Z,17.95
2018-10-21T14:47:16.889Z,17.78
2018-10-21T14:49:46.736Z,17.86
2018-10-21T14:52:16.687Z,17.84
2018-10-21T14:54:46.565Z,17.42
2018-10-21T14:57:16.441Z,17.33
2018-10-21T14:59:46.359Z,17.01
2018-10-21T15:02:16.476Z,16.87
2018-10-21T15:04:46.389Z,17.13
2018-10-21T15:07:16.336Z,17.15
2018-10-21T15:09:46.202Z,17.15
2018-10-21T15:12:16.112Z,16.84
2018-10-21T15:14:45.729Z,16.95
2018-10-21T15:17:15.696Z,16.57
2018-10-21T15:19:45.532Z,16.98
2018-10-21T15:22:15.551Z,17.17
2018-10-21T15:24:45.353Z,16.82
2018-10-21T15:27:15.251Z,16.54
2018-10-21T15:29:45.140Z,16.56
2018-10-21T15:32:15.098Z,16.74
2018-10-21T15:34:45.125Z,16.98
2018-10-21T15:37:15.015Z,16.76
2018-10-21T15:39:45.266Z,16.48
2018-10-21T15:42:15.043Z,16.35
2018-10-21T15:44:44.896Z,16.40
2018-10-21T15:47:14.790Z,16.42
2018-10-21T15:49:44.799Z,16.28
2018-10-21T15:52:14.686Z,16.05
2018-10-21T15:54:44.616Z,16.06
2018-10-21T15:57:14.608Z,16.48
2018-10-21T15:59:44.546Z,16.30
2018-10-21T16:02:14.498Z,16.47
2018-10-21T16:04:44.422Z,16.19
2018-10-21T16:07:14.374Z,16.09
2018-10-21T16:09:44.445Z,16.13
2018-10-21T16:12:14.294Z,16.34
2018-10-21T16:14:44.188Z,16.61
2018-10-21T16:17:14.060Z,16.61
2018-10-21T16:19:44.076Z,16.49
2018-10-21T16:22:13.991Z,16.34
2018-10-21T16:24:43.708Z,16.35
2018-10-21T16:27:13.592Z,15.95
2018-10-21T16:29:43.499Z,15.73
2018-10-21T16:32:13.475Z,15.66
2018-10-21T16:34:43.372Z,15.74
2018-10-21T16:37:13.332Z,15.85
2018-10-21T16:39:43.209Z,15.68
2018-10-21T16:42:13.132Z,15.94
2018-10-21T16:44:42.954Z,15.58
2018-10-21T16:47:12.829Z,15.25
2018-10-21T16:49:42.664Z,15.51
2018-10-21T16:52:12.496Z,15.59
2018-10-21T16:54:42.476Z,15.73
2018-10-21T16:57:12.297Z,15.92
2018-10-21T16:59:42.185Z,15.69
2018-10-21T17:02:12.074Z,15.70
2018-10-21T17:04:41.942Z,15.49
2018-10-21T17:07:11.848Z,15.35
2018-10-21T17:09:41.893Z,15.16
2018-10-21T17:12:11.639Z,15.57
2018-10-21T17:14:41.436Z,15.90
2018-10-21T17:17:11.459Z,16.08
2018-10-21T17:19:41.344Z,16.11
2018-10-21T17:22:11.418Z,16.16
2018-10-21T17:24:41.143Z,16.31
2018-10-21T17:27:10.982Z,16.21
2018-10-21T17:29:40.718Z,16.28
2018-10-21T17:32:10.564Z,15.76
2018-10-21T17:34:40.400Z,15.86
2018-10-21T17:37:10.285Z,16.05
2018-10-21T17:39:40.245Z,16.18
2018-10-21T17:42:10.019Z,16.17
2018-10-21T17:44:39.843Z,16.10
2018-10-21T17:47:09.848Z,16.27
2018-10-21T17:49:39.869Z,15.87
2018-10-21T17:52:09.685Z,15.95
2018-10-21T17:54:39.335Z,15.99
2018-10-21T17:57:09.144Z,16.08
2018-10-21T17:59:39.136Z,15.95
2018-10-21T18:02:09.073Z,15.73
2018-10-21T18:04:38.797Z,15.33
2018-10-21T18:07:08.771Z,15.12
2018-10-21T18:09:38.677Z,15.07
2018-10-21T18:12:08.771Z,14.85
2018-10-21T18:14:38.487Z,14.81
2018-10-21T18:17:08.326Z,14.93
2018-10-21T18:19:38.225Z,15.22
2018-10-21T18:22:08.270Z,14.92
2018-10-21T18:24:38.013Z,14.60
2018-10-21T18:27:07.782Z,14.69
2018-10-21T18:29:37.704Z,14.71
2018-10-21T18:32:07.503Z,14.93
2018-10-21T18:34:37.476Z,15.05
2018-10-21T18:37:08.476Z,14.58
2018-10-21T18:39:38.362Z,14.47
2018-10-21T18:42:08.271Z,14.87
2018-10-21T18:44:38.204Z,14.90
2018-10-21T18:47:08.497Z,14.75
2018-10-21T18:49:38.339Z,14.79
2018-10-21T18:52:08.265Z,15.03
2018-10-21T18:54:38.127Z,15.25
2018-10-21T18:57:07.898Z,15.05
2018-10-21T18:59:37.721Z,14.58
2018-10-21T19:02:07.854Z,14.53
2018-10-21T19:04:37.689Z,14.55
2018-10-21T19:07:08.230Z,14.36
2018-10-21T19:09:38.040Z,14.76
2018-10-21T19:12:08.510Z,15.08
2018-10-21T19:14:38.506Z,14.76
2018-10-21T19:17:09.163Z,15.33
2018-10-21T19:19:38.853Z,15.59
2018-10-21T19:22:08.861Z,15.78
2018-10-21T19:24:38.600Z,15.76
2018-10-21T19:27:08.558Z,15.71
2018-10-21T19:29:38.411Z,15.81
2018-10-21T19:32:08.570Z,15.51
2018-10-21T19:34:38.534Z,15.22
2018-10-21T19:37:08.407Z,15.04
2018-10-21T19:39:38.257Z,15.24
2018-10-21T19:42:08.537Z,15.13
2018-10-21T19:44:38.418Z,15.08
2018-10-21T19:47:08.191Z,15.24
2018-10-21T19:49:38.122Z,15.05
2018-10-21T19:52:07.990Z,15.40
2018-10-21T19:54:37.991Z,15.63
2018-10-21T19:57:07.874Z,15.78
2018-10-21T19:59:37.701Z,14.23
2018-10-21T20:02:07.800Z,15.97
2018-10-21T20:04:37.608Z,15.86
2018-10-21T20:07:07.605Z,15.79
2018-10-21T20:09:37.860Z,15.82
2018-10-21T20:12:07.806Z,15.80
2018-10-21T20:14:37.825Z,15.75
2018-10-21T20:17:07.850Z,15.60
2018-10-21T20:19:37.888Z,15.53
2018-10-21T20:22:10.719Z,15.41
2018-10-21T20:24:40.865Z,15.40
2018-10-21T20:27:10.983Z,15.39
2018-10-21T20:29:40.786Z,15.43
2018-10-21T20:32:10.692Z,15.35
2018-10-21T20:34:40.431Z,15.28
2018-10-21T20:37:10.274Z,15.20
2018-10-21T20:39:40.166Z,15.02
2018-10-21T20:42:10.201Z,15.11
2018-10-21T20:44:40.075Z,14.77
2018-10-21T20:47:09.908Z,14.56
2018-10-21T20:49:40.318Z,14.50
2018-10-21T20:52:10.683Z,14.65
2018-10-21T20:54:47.064Z,14.82
2018-10-21T20:57:18.217Z,14.93
2018-10-21T20:59:48.613Z,15.20
2018-10-21T21:02:18.378Z,15.28
2018-10-21T21:04:48.336Z,15.30
2018-10-21T21:07:19.007Z,15.31
2018-10-21T21:09:48.975Z,15.28
2018-10-21T21:12:18.884Z,15.30
2018-10-21T21:14:48.716Z,15.22
2018-10-21T21:17:18.762Z,15.05
2018-10-21T21:19:48.531Z,14.91
2018-10-21T21:22:18.569Z,14.94
2018-10-21T21:24:48.358Z,14.39
2018-10-21T21:27:18.139Z,14.13
2018-10-21T21:29:48.009Z,13.90
2018-10-21T21:32:17.947Z,14.16
2018-10-21T21:34:47.844Z,14.39
2018-10-21T21:37:17.767Z,14.36
2018-10-21T21:39:47.587Z,14.31
2018-10-21T21:42:17.374Z,14.21
2018-10-21T21:44:47.267Z,14.30
2018-10-21T21:47:17.099Z,14.16
2018-10-21T21:49:47.047Z,14.17
2018-10-21T21:52:16.958Z,13.97
2018-10-21T21:54:46.836Z,13.74
2018-10-21T21:57:16.791Z,13.93
2018-10-21T21:59:46.630Z,14.01
2018-10-21T22:02:16.280Z,14.01
2018-10-21T22:04:46.157Z,14.05
2018-10-21T22:07:15.957Z,14.04
2018-10-21T22:09:45.866Z,14.04
2018-10-21T22:12:15.735Z,14.07
2018-10-21T22:14:45.499Z,14.11
2018-10-21T22:17:15.291Z,14.15
2018-10-21T22:19:45.242Z,14.15
2018-10-21T22:22:15.300Z,13.85
2018-10-21T22:24:45.097Z,13.88
2018-10-21T22:27:15.014Z,13.96
2018-10-21T22:29:45.007Z,14.01
2018-10-21T22:32:14.794Z,13.85
2018-10-21T22:34:44.618Z,14.10
2018-10-21T22:37:14.548Z,14.17
2018-10-21T22:39:44.363Z,14.28
2018-10-21T22:42:14.351Z,14.30
2018-10-21T22:44:44.173Z,14.23
2018-10-21T22:47:13.987Z,14.35
2018-10-21T22:49:43.904Z,14.37
2018-10-21T22:52:14.003Z,14.06
2018-10-21T22:54:43.806Z,14.11
2018-10-21T22:57:18.205Z,14.10
2018-10-21T22:59:49.542Z,13.90
2018-10-21T23:02:19.463Z,14.19
2018-10-21T23:04:49.381Z,13.81
2018-10-21T23:07:19.375Z,13.55
2018-10-21T23:09:49.115Z,13.66
2018-10-21T23:12:19.268Z,13.43
2018-10-21T23:14:49.164Z,13.44
2018-10-21T23:17:18.948Z,13.58
2018-10-21T23:19:50.215Z,13.81
2018-10-21T23:22:20.256Z,13.84
2018-10-21T23:24:50.259Z,13.88
2018-10-21T23:27:20.286Z,13.88
2018-10-21T23:29:50.049Z,13.71
2018-10-21T23:32:19.830Z,13.78
2018-10-21T23:34:49.773Z,13.81
2018-10-21T23:37:19.602Z,13.88
2018-10-21T23:39:49.496Z,13.82
2018-10-21T23:42:19.407Z,13.68
2018-10-21T23:44:49.349Z,13.75
2018-10-21T23:47:19.041Z,13.77
2018-10-21T23:49:48.934Z,13.76
2018-10-21T23:52:18.796Z,13.76
2018-10-21T23:54:48.861Z,13.81
2018-10-21T23:57:18.834Z,13.86
2018-10-21T23:59:48.631Z,12.31
